sensor_id;sensor_type;location;lat;lon;timestamp;P1;durP1;ratioP1;P2;durP2;ratioP2
17153;SDS011;8692;52.164;7.558;2022-08-20T00:01:18;14.25;;;12.98;;
17153;SDS011;8692;52.164;7.558;2022-08-20T00:03:46;14.67;;;13.23;;
17153;SDS011;8692;52.164;7.558;2022-08-20T00:06:21;13.93;;;12.67;;
17153;SDS011;8692;52.164;7.558;2022-08-20T00:08:50;15.33;;;13.93;;
17153;SDS011;8692;52.164;7.558;2022-08-20T00:11:20;16.20;;;14.60;;
17153;SDS011;8692;52.164;7.558;2022-08-20T00:13:52;17.17;;;15.57;;
17153;SDS011;8692;52.164;7.558;2022-08-20T00:16:24;12.93;;;11.73;;
17153;SDS011;8692;52.164;7.558;2022-08-20T00:18:58;15.20;;;13.80;;
17153;SDS011;8692;52.164;7.558;2022-08-20T00:21:27;15.83;;;14.43;;
17153;SDS011;8692;52.164;7.558;2022-08-20T00:23:56;13.97;;;12.70;;
17153;SDS011;8692;52.164;7.558;2022-08-20T00:26:25;18.33;;;16.73;;
17153;SDS011;8692;52.164;7.558;2022-08-20T00:28:53;18.63;;;17.03;;
17153;SDS011;8692;52.164;7.558;2022-08-20T00:31:22;17.98;;;16.38;;
17153;SDS011;8692;52.164;7.558;2022-08-20T00:33:52;17.97;;;16.47;;
17153;SDS011;8692;52.164;7.558;2022-08-20T00:36:21;18.17;;;16.57;;
17153;SDS011;8692;52.164;7.558;2022-08-20T00:38:58;14.60;;;13.20;;
17153;SDS011;8692;52.164;7.558;2022-08-20T00:41:29;13.33;;;12.13;;
17153;SDS011;8692;52.164;7.558;2022-08-20T00:44:04;14.17;;;12.90;;
17153;SDS011;8692;52.164;7.558;2022-08-20T00:46:36;12.43;;;11.23;;
17153;SDS011;8692;52.164;7.558;2022-08-20T00:49:05;16.73;;;15.13;;
17153;SDS011;8692;52.164;7.558;2022-08-20T00:51:47;14.27;;;13.07;;
17153;SDS011;8692;52.164;7.558;2022-08-20T00:54:20;12.60;;;11.50;;
17153;SDS011;8692;52.164;7.558;2022-08-20T00:56:51;11.27;;;10.37;;
17153;SDS011;8692;52.164;7.558;2022-08-20T00:59:27;12.70;;;11.60;;
17153;SDS011;8692;52.164;7.558;2022-08-20T01:01:59;13.73;;;12.43;;
17153;SDS011;8692;52.164;7.558;2022-08-20T01:04:29;14.27;;;13.07;;
17153;SDS011;8692;52.164;7.558;2022-08-20T01:07:02;13.67;;;12.47;;
17153;SDS011;8692;52.164;7.558;2022-08-20T01:09:34;14.07;;;12.87;;
17153;SDS011;8692;52.164;7.558;2022-08-20T01:12:24;13.93;;;12.63;;
17153;SDS011;8692;52.164;7.558;2022-08-20T01:14:57;15.63;;;14.17;;
17153;SDS011;8692;52.164;7.558;2022-08-20T01:17:30;14.47;;;13.17;;
17153;SDS011;8692;52.164;7.558;2022-08-20T01:20:05;14.43;;;13.13;;
17153;SDS011;8692;52.164;7.558;2022-08-20T01:22:38;15.40;;;14.00;;
17153;SDS011;8692;52.164;7.558;2022-08-20T01:28:12;15.97;;;14.47;;
17153;SDS011;8692;52.164;7.558;2022-08-20T01:30:44;17.17;;;15.67;;
17153;SDS011;8692;52.164;7.558;2022-08-20T01:33:13;15.87;;;14.47;;
17153;SDS011;8692;52.164;7.558;2022-08-20T01:35:41;14.67;;;13.37;;
17153;SDS011;8692;52.164;7.558;2022-08-20T01:38:12;15.63;;;14.33;;
17153;SDS011;8692;52.164;7.558;2022-08-20T01:40:49;14.23;;;12.93;;
17153;SDS011;8692;52.164;7.558;2022-08-20T01:43:30;15.07;;;13.77;;
17153;SDS011;8692;52.164;7.558;2022-08-20T01:46:02;15.63;;;14.13;;
17153;SDS011;8692;52.164;7.558;2022-08-20T01:48:31;15.27;;;13.87;;
17153;SDS011;8692;52.164;7.558;2022-08-20T01:51:03;13.97;;;12.70;;
17153;SDS011;8692;52.164;7.558;2022-08-20T01:53:37;12.70;;;11.67;;
17153;SDS011;8692;52.164;7.558;2022-08-20T01:56:11;13.90;;;12.70;;
17153;SDS011;8692;52.164;7.558;2022-08-20T01:58:45;13.20;;;12.10;;
17153;SDS011;8692;52.164;7.558;2022-08-20T02:01:24;14.03;;;12.60;;
17153;SDS011;8692;52.164;7.558;2022-08-20T02:03:55;15.33;;;13.93;;
17153;SDS011;8692;52.164;7.558;2022-08-20T02:06:24;14.17;;;12.87;;
17153;SDS011;8692;52.164;7.558;2022-08-20T02:08:54;12.73;;;11.63;;
17153;SDS011;8692;52.164;7.558;2022-08-20T02:11:24;12.03;;;10.83;;
17153;SDS011;8692;52.164;7.558;2022-08-20T02:13:57;13.50;;;12.20;;
17153;SDS011;8692;52.164;7.558;2022-08-20T02:16:27;12.00;;;10.90;;
17153;SDS011;8692;52.164;7.558;2022-08-20T02:18:59;12.90;;;11.80;;
17153;SDS011;8692;52.164;7.558;2022-08-20T02:21:30;11.80;;;10.70;;
17153;SDS011;8692;52.164;7.558;2022-08-20T02:24:02;10.20;;;9.40;;
17153;SDS011;8692;52.164;7.558;2022-08-20T02:26:35;10.53;;;9.47;;
17153;SDS011;8692;52.164;7.558;2022-08-20T02:29:04;10.10;;;9.30;;
17153;SDS011;8692;52.164;7.558;2022-08-20T02:31:33;9.50;;;8.70;;
17153;SDS011;8692;52.164;7.558;2022-08-20T02:34:22;9.13;;;8.33;;
17153;SDS011;8692;52.164;7.558;2022-08-20T02:36:53;8.87;;;8.07;;
17153;SDS011;8692;52.164;7.558;2022-08-20T02:39:23;9.30;;;8.47;;
17153;SDS011;8692;52.164;7.558;2022-08-20T02:41:53;9.97;;;9.17;;
17153;SDS011;8692;52.164;7.558;2022-08-20T02:44:22;9.70;;;8.80;;
17153;SDS011;8692;52.164;7.558;2022-08-20T02:46:50;9.67;;;8.93;;
17153;SDS011;8692;52.164;7.558;2022-08-20T02:49:18;8.90;;;8.17;;
17153;SDS011;8692;52.164;7.558;2022-08-20T02:51:50;10.03;;;9.03;;
17153;SDS011;8692;52.164;7.558;2022-08-20T02:54:18;9.50;;;8.70;;
17153;SDS011;8692;52.164;7.558;2022-08-20T02:56:46;9.33;;;8.43;;
17153;SDS011;8692;52.164;7.558;2022-08-20T02:59:16;9.37;;;8.47;;
17153;SDS011;8692;52.164;7.558;2022-08-20T03:01:47;9.43;;;8.63;;
17153;SDS011;8692;52.164;7.558;2022-08-20T03:04:26;8.63;;;7.83;;
17153;SDS011;8692;52.164;7.558;2022-08-20T03:06:54;8.57;;;7.87;;
17153;SDS011;8692;52.164;7.558;2022-08-20T03:09:26;8.33;;;7.63;;
17153;SDS011;8692;52.164;7.558;2022-08-20T03:11:54;8.20;;;7.53;;
17153;SDS011;8692;52.164;7.558;2022-08-20T03:14:23;7.10;;;6.60;;
17153;SDS011;8692;52.164;7.558;2022-08-20T03:16:54;8.13;;;7.43;;
17153;SDS011;8692;52.164;7.558;2022-08-20T03:19:22;6.50;;;6.00;;
17153;SDS011;8692;52.164;7.558;2022-08-20T03:21:51;6.70;;;6.27;;
17153;SDS011;8692;52.164;7.558;2022-08-20T03:24:21;6.73;;;6.23;;
17153;SDS011;8692;52.164;7.558;2022-08-20T03:26:49;6.37;;;5.90;;
17153;SDS011;8692;52.164;7.558;2022-08-20T03:29:18;6.20;;;5.70;;
17153;SDS011;8692;52.164;7.558;2022-08-20T03:31:47;5.87;;;5.37;;
17153;SDS011;8692;52.164;7.558;2022-08-20T03:34:18;5.20;;;4.80;;
17153;SDS011;8692;52.164;7.558;2022-08-20T03:36:48;4.43;;;4.13;;
17153;SDS011;8692;52.164;7.558;2022-08-20T03:39:17;5.30;;;4.90;;
17153;SDS011;8692;52.164;7.558;2022-08-20T03:41:45;5.17;;;4.73;;
17153;SDS011;8692;52.164;7.558;2022-08-20T03:44:13;5.10;;;4.60;;
17153;SDS011;8692;52.164;7.558;2022-08-20T03:46:41;4.70;;;4.40;;
17153;SDS011;8692;52.164;7.558;2022-08-20T03:49:11;4.30;;;4.00;;
17153;SDS011;8692;52.164;7.558;2022-08-20T03:51:39;4.80;;;4.40;;
17153;SDS011;8692;52.164;7.558;2022-08-20T03:54:23;3.77;;;3.47;;
17153;SDS011;8692;52.164;7.558;2022-08-20T03:56:58;3.77;;;3.47;;
17153;SDS011;8692;52.164;7.558;2022-08-20T03:59:30;3.47;;;3.17;;
17153;SDS011;8692;52.164;7.558;2022-08-20T04:01:59;3.57;;;3.37;;
17153;SDS011;8692;52.164;7.558;2022-08-20T04:04:29;3.20;;;3.00;;
17153;SDS011;8692;52.164;7.558;2022-08-20T04:06:57;3.80;;;3.50;;
17153;SDS011;8692;52.164;7.558;2022-08-20T04:09:25;2.97;;;2.67;;
17153;SDS011;8692;52.164;7.558;2022-08-20T04:11:54;2.93;;;2.40;;
17153;SDS011;8692;52.164;7.558;2022-08-20T04:14:26;2.70;;;2.50;;
17153;SDS011;8692;52.164;7.558;2022-08-20T04:16:55;2.63;;;2.43;;
17153;SDS011;8692;52.164;7.558;2022-08-20T04:19:23;2.70;;;2.50;;
17153;SDS011;8692;52.164;7.558;2022-08-20T04:21:59;3.80;;;3.50;;
17153;SDS011;8692;52.164;7.558;2022-08-20T04:24:27;3.03;;;2.83;;
17153;SDS011;8692;52.164;7.558;2022-08-20T04:26:58;4.47;;;4.17;;
17153;SDS011;8692;52.164;7.558;2022-08-20T04:29:28;5.47;;;5.07;;
17153;SDS011;8692;52.164;7.558;2022-08-20T04:32:01;5.37;;;4.40;;
17153;SDS011;8692;52.164;7.558;2022-08-20T04:34:34;5.97;;;4.50;;
17153;SDS011;8692;52.164;7.558;2022-08-20T04:37:04;5.77;;;5.33;;
17153;SDS011;8692;52.164;7.558;2022-08-20T04:39:42;6.00;;;5.60;;
17153;SDS011;8692;52.164;7.558;2022-08-20T04:42:34;6.70;;;6.20;;
17153;SDS011;8692;52.164;7.558;2022-08-20T04:45:05;8.57;;;7.77;;
17153;SDS011;8692;52.164;7.558;2022-08-20T04:47:34;7.97;;;7.37;;
17153;SDS011;8692;52.164;7.558;2022-08-20T04:50:02;9.67;;;8.67;;
17153;SDS011;8692;52.164;7.558;2022-08-20T04:52:32;9.13;;;7.90;;
17153;SDS011;8692;52.164;7.558;2022-08-20T04:55:04;8.33;;;7.63;;
17153;SDS011;8692;52.164;7.558;2022-08-20T04:57:33;9.30;;;8.40;;
17153;SDS011;8692;52.164;7.558;2022-08-20T05:00:07;8.80;;;8.00;;
17153;SDS011;8692;52.164;7.558;2022-08-20T05:02:38;7.97;;;7.30;;
17153;SDS011;8692;52.164;7.558;2022-08-20T05:05:10;8.27;;;7.67;;
17153;SDS011;8692;52.164;7.558;2022-08-20T05:07:42;8.13;;;7.37;;
17153;SDS011;8692;52.164;7.558;2022-08-20T05:10:12;10.20;;;9.30;;
17153;SDS011;8692;52.164;7.558;2022-08-20T05:12:46;10.03;;;9.23;;
17153;SDS011;8692;52.164;7.558;2022-08-20T05:15:24;9.57;;;8.80;;
17153;SDS011;8692;52.164;7.558;2022-08-20T05:17:54;9.27;;;8.47;;
17153;SDS011;8692;52.164;7.558;2022-08-20T05:20:26;11.30;;;10.20;;
17153;SDS011;8692;52.164;7.558;2022-08-20T05:23:01;11.60;;;10.50;;
17153;SDS011;8692;52.164;7.558;2022-08-20T05:25:29;11.10;;;10.10;;
17153;SDS011;8692;52.164;7.558;2022-08-20T05:28:03;10.67;;;9.77;;
17153;SDS011;8692;52.164;7.558;2022-08-20T05:30:35;11.20;;;10.20;;
17153;SDS011;8692;52.164;7.558;2022-08-20T05:33:05;9.97;;;9.17;;
17153;SDS011;8692;52.164;7.558;2022-08-20T05:35:37;10.87;;;9.97;;
17153;SDS011;8692;52.164;7.558;2022-08-20T05:38:08;12.43;;;11.23;;
17153;SDS011;8692;52.164;7.558;2022-08-20T05:40:47;11.90;;;10.87;;
17153;SDS011;8692;52.164;7.558;2022-08-20T05:43:18;13.07;;;11.87;;
17153;SDS011;8692;52.164;7.558;2022-08-20T05:45:47;11.47;;;10.47;;
17153;SDS011;8692;52.164;7.558;2022-08-20T05:48:24;13.83;;;12.53;;
17153;SDS011;8692;52.164;7.558;2022-08-20T05:50:55;13.30;;;12.17;;
17153;SDS011;8692;52.164;7.558;2022-08-20T05:53:25;13.30;;;12.10;;
17153;SDS011;8692;52.164;7.558;2022-08-20T05:55:56;12.73;;;11.70;;
17153;SDS011;8692;52.164;7.558;2022-08-20T05:58:25;13.70;;;12.60;;
17153;SDS011;8692;52.164;7.558;2022-08-20T06:00:54;13.57;;;12.37;;
17153;SDS011;8692;52.164;7.558;2022-08-20T06:03:25;13.93;;;12.73;;
17153;SDS011;8692;52.164;7.558;2022-08-20T06:06:10;16.33;;;14.80;;
17153;SDS011;8692;52.164;7.558;2022-08-20T06:09:00;15.03;;;13.63;;
17153;SDS011;8692;52.164;7.558;2022-08-20T06:11:31;16.43;;;15.10;;
17153;SDS011;8692;52.164;7.558;2022-08-20T06:14:02;16.23;;;14.83;;
17153;SDS011;8692;52.164;7.558;2022-08-20T06:16:33;16.50;;;15.10;;
17153;SDS011;8692;52.164;7.558;2022-08-20T06:19:02;16.10;;;14.70;;
17153;SDS011;8692;52.164;7.558;2022-08-20T06:21:36;17.67;;;16.07;;
17153;SDS011;8692;52.164;7.558;2022-08-20T06:24:06;19.50;;;17.53;;
17153;SDS011;8692;52.164;7.558;2022-08-20T06:26:35;17.33;;;15.70;;
17153;SDS011;8692;52.164;7.558;2022-08-20T06:29:04;17.33;;;15.83;;
17153;SDS011;8692;52.164;7.558;2022-08-20T06:31:32;16.50;;;15.03;;
17153;SDS011;8692;52.164;7.558;2022-08-20T06:34:05;17.63;;;16.07;;
17153;SDS011;8692;52.164;7.558;2022-08-20T06:36:36;18.87;;;17.17;;
17153;SDS011;8692;52.164;7.558;2022-08-20T06:39:04;18.30;;;16.53;;
17153;SDS011;8692;52.164;7.558;2022-08-20T06:41:36;16.47;;;14.97;;
17153;SDS011;8692;52.164;7.558;2022-08-20T06:44:07;18.30;;;16.63;;
17153;SDS011;8692;52.164;7.558;2022-08-20T06:46:35;18.53;;;16.93;;
17153;SDS011;8692;52.164;7.558;2022-08-20T06:49:05;17.80;;;16.30;;
17153;SDS011;8692;52.164;7.558;2022-08-20T06:51:37;17.90;;;16.20;;
17153;SDS011;8692;52.164;7.558;2022-08-20T06:54:09;17.57;;;15.77;;
17153;SDS011;8692;52.164;7.558;2022-08-20T06:56:39;19.97;;;18.17;;
17153;SDS011;8692;52.164;7.558;2022-08-20T06:59:09;17.97;;;16.30;;
17153;SDS011;8692;52.164;7.558;2022-08-20T07:01:39;17.10;;;15.77;;
17153;SDS011;8692;52.164;7.558;2022-08-20T07:04:10;17.37;;;15.87;;
17153;SDS011;8692;52.164;7.558;2022-08-20T07:06:38;18.37;;;16.67;;
17153;SDS011;8692;52.164;7.558;2022-08-20T07:09:07;18.17;;;16.63;;
17153;SDS011;8692;52.164;7.558;2022-08-20T07:11:39;18.03;;;16.53;;
17153;SDS011;8692;52.164;7.558;2022-08-20T07:14:07;17.93;;;16.40;;
17153;SDS011;8692;52.164;7.558;2022-08-20T07:16:36;20.30;;;18.23;;
17153;SDS011;8692;52.164;7.558;2022-08-20T07:19:04;19.27;;;17.37;;
17153;SDS011;8692;52.164;7.558;2022-08-20T07:21:36;18.00;;;16.30;;
17153;SDS011;8692;52.164;7.558;2022-08-20T07:24:05;20.70;;;17.80;;
17153;SDS011;8692;52.164;7.558;2022-08-20T07:26:38;18.77;;;16.43;;
17153;SDS011;8692;52.164;7.558;2022-08-20T07:29:06;17.57;;;16.03;;
17153;SDS011;8692;52.164;7.558;2022-08-20T07:31:38;17.97;;;16.37;;
17153;SDS011;8692;52.164;7.558;2022-08-20T07:34:38;17.03;;;15.43;;
17153;SDS011;8692;52.164;7.558;2022-08-20T07:37:10;19.10;;;17.27;;
17153;SDS011;8692;52.164;7.558;2022-08-20T07:39:39;18.52;;;16.73;;
17153;SDS011;8692;52.164;7.558;2022-08-20T07:42:08;18.13;;;16.53;;
17153;SDS011;8692;52.164;7.558;2022-08-20T07:44:37;14.97;;;13.67;;
17153;SDS011;8692;52.164;7.558;2022-08-20T07:47:07;15.37;;;13.90;;
17153;SDS011;8692;52.164;7.558;2022-08-20T07:49:36;13.87;;;12.57;;
17153;SDS011;8692;52.164;7.558;2022-08-20T07:52:05;13.60;;;12.40;;
17153;SDS011;8692;52.164;7.558;2022-08-20T07:54:33;14.23;;;12.73;;
17153;SDS011;8692;52.164;7.558;2022-08-20T07:57:03;15.57;;;14.07;;
17153;SDS011;8692;52.164;7.558;2022-08-20T07:59:33;16.77;;;15.07;;
17153;SDS011;8692;52.164;7.558;2022-08-20T08:02:02;16.87;;;15.30;;
17153;SDS011;8692;52.164;7.558;2022-08-20T08:04:30;15.70;;;14.37;;
17153;SDS011;8692;52.164;7.558;2022-08-20T08:07:00;15.73;;;14.23;;
17153;SDS011;8692;52.164;7.558;2022-08-20T08:09:30;14.97;;;13.50;;
17153;SDS011;8692;52.164;7.558;2022-08-20T08:12:00;13.03;;;11.93;;
17153;SDS011;8692;52.164;7.558;2022-08-20T08:14:30;13.87;;;12.53;;
17153;SDS011;8692;52.164;7.558;2022-08-20T08:17:02;15.07;;;13.60;;
17153;SDS011;8692;52.164;7.558;2022-08-20T08:19:36;15.63;;;14.33;;
17153;SDS011;8692;52.164;7.558;2022-08-20T08:22:10;16.57;;;14.83;;
17153;SDS011;8692;52.164;7.558;2022-08-20T08:24:42;14.63;;;13.30;;
17153;SDS011;8692;52.164;7.558;2022-08-20T08:27:22;15.63;;;13.00;;
17153;SDS011;8692;52.164;7.558;2022-08-20T08:29:52;13.33;;;12.17;;
17153;SDS011;8692;52.164;7.558;2022-08-20T08:32:20;13.33;;;12.03;;
17153;SDS011;8692;52.164;7.558;2022-08-20T08:34:52;14.13;;;12.83;;
17153;SDS011;8692;52.164;7.558;2022-08-20T08:37:20;12.70;;;11.43;;
17153;SDS011;8692;52.164;7.558;2022-08-20T08:39:48;11.30;;;10.40;;
17153;SDS011;8692;52.164;7.558;2022-08-20T08:42:20;10.90;;;10.00;;
17153;SDS011;8692;52.164;7.558;2022-08-20T08:44:54;12.10;;;11.10;;
17153;SDS011;8692;52.164;7.558;2022-08-20T08:47:26;10.87;;;9.83;;
17153;SDS011;8692;52.164;7.558;2022-08-20T08:50:00;11.80;;;10.60;;
17153;SDS011;8692;52.164;7.558;2022-08-20T08:52:29;11.40;;;9.97;;
17153;SDS011;8692;52.164;7.558;2022-08-20T08:55:02;10.83;;;9.93;;
17153;SDS011;8692;52.164;7.558;2022-08-20T08:57:35;11.23;;;10.20;;
17153;SDS011;8692;52.164;7.558;2022-08-20T09:00:08;11.03;;;9.97;;
17153;SDS011;8692;52.164;7.558;2022-08-20T09:02:51;10.93;;;9.87;;
17153;SDS011;8692;52.164;7.558;2022-08-20T09:05:22;10.53;;;9.60;;
17153;SDS011;8692;52.164;7.558;2022-08-20T09:07:53;9.87;;;8.97;;
17153;SDS011;8692;52.164;7.558;2022-08-20T09:10:25;11.13;;;8.93;;
17153;SDS011;8692;52.164;7.558;2022-08-20T09:12:53;8.60;;;7.60;;
17153;SDS011;8692;52.164;7.558;2022-08-20T09:15:25;9.47;;;7.83;;
17153;SDS011;8692;52.164;7.558;2022-08-20T09:17:53;10.43;;;8.93;;
17153;SDS011;8692;52.164;7.558;2022-08-20T09:20:21;10.23;;;9.20;;
17153;SDS011;8692;52.164;7.558;2022-08-20T09:22:52;9.98;;;9.10;;
17153;SDS011;8692;52.164;7.558;2022-08-20T09:25:23;9.77;;;8.77;;
17153;SDS011;8692;52.164;7.558;2022-08-20T09:27:54;11.52;;;8.85;;
17153;SDS011;8692;52.164;7.558;2022-08-20T09:30:22;11.03;;;9.93;;
17153;SDS011;8692;52.164;7.558;2022-08-20T09:32:57;11.47;;;10.30;;
17153;SDS011;8692;52.164;7.558;2022-08-20T09:35:25;9.70;;;8.80;;
17153;SDS011;8692;52.164;7.558;2022-08-20T09:37:54;10.13;;;9.13;;
17153;SDS011;8692;52.164;7.558;2022-08-20T09:40:22;10.05;;;9.13;;
17153;SDS011;8692;52.164;7.558;2022-08-20T09:42:51;9.13;;;7.87;;
17153;SDS011;8692;52.164;7.558;2022-08-20T09:45:19;7.53;;;6.80;;
17153;SDS011;8692;52.164;7.558;2022-08-20T09:47:49;7.53;;;6.82;;
17153;SDS011;8692;52.164;7.558;2022-08-20T09:50:22;10.60;;;8.55;;
17153;SDS011;8692;52.164;7.558;2022-08-20T09:52:51;8.55;;;7.68;;
17153;SDS011;8692;52.164;7.558;2022-08-20T09:55:26;8.23;;;7.15;;
17153;SDS011;8692;52.164;7.558;2022-08-20T09:57:59;6.60;;;6.00;;
17153;SDS011;8692;52.164;7.558;2022-08-20T10:00:28;8.17;;;6.53;;
17153;SDS011;8692;52.164;7.558;2022-08-20T10:02:58;6.88;;;6.28;;
17153;SDS011;8692;52.164;7.558;2022-08-20T10:05:30;6.82;;;6.22;;
17153;SDS011;8692;52.164;7.558;2022-08-20T10:07:59;7.25;;;6.55;;
17153;SDS011;8692;52.164;7.558;2022-08-20T10:10:31;8.85;;;7.72;;
17153;SDS011;8692;52.164;7.558;2022-08-20T10:13:02;7.70;;;7.00;;
17153;SDS011;8692;52.164;7.558;2022-08-20T10:15:31;7.00;;;5.97;;
17153;SDS011;8692;52.164;7.558;2022-08-20T10:18:03;6.30;;;4.85;;
17153;SDS011;8692;52.164;7.558;2022-08-20T10:20:33;7.35;;;4.10;;
17153;SDS011;8692;52.164;7.558;2022-08-20T10:23:02;4.40;;;3.85;;
17153;SDS011;8692;52.164;7.558;2022-08-20T10:25:31;3.60;;;3.10;;
17153;SDS011;8692;52.164;7.558;2022-08-20T10:27:59;5.80;;;3.10;;
17153;SDS011;8692;52.164;7.558;2022-08-20T10:30:27;5.88;;;3.47;;
17153;SDS011;8692;52.164;7.558;2022-08-20T10:32:55;5.35;;;3.55;;
17153;SDS011;8692;52.164;7.558;2022-08-20T10:35:27;6.15;;;3.30;;
17153;SDS011;8692;52.164;7.558;2022-08-20T10:37:58;4.65;;;3.08;;
17153;SDS011;8692;52.164;7.558;2022-08-20T10:40:29;6.05;;;3.13;;
17153;SDS011;8692;52.164;7.558;2022-08-20T10:42:57;6.95;;;2.90;;
17153;SDS011;8692;52.164;7.558;2022-08-20T10:45:25;6.95;;;3.10;;
17153;SDS011;8692;52.164;7.558;2022-08-20T10:47:53;9.20;;;3.03;;
17153;SDS011;8692;52.164;7.558;2022-08-20T10:50:25;6.80;;;2.47;;
17153;SDS011;8692;52.164;7.558;2022-08-20T10:52:57;5.45;;;2.95;;
17153;SDS011;8692;52.164;7.558;2022-08-20T10:55:26;7.07;;;2.72;;
17153;SDS011;8692;52.164;7.558;2022-08-20T10:57:54;5.10;;;2.67;;
17153;SDS011;8692;52.164;7.558;2022-08-20T11:00:22;6.88;;;2.88;;
17153;SDS011;8692;52.164;7.558;2022-08-20T11:02:51;5.13;;;2.85;;
17153;SDS011;8692;52.164;7.558;2022-08-20T11:05:22;6.22;;;3.10;;
17153;SDS011;8692;52.164;7.558;2022-08-20T11:07:50;5.10;;;2.67;;
17153;SDS011;8692;52.164;7.558;2022-08-20T11:10:24;7.18;;;2.58;;
17153;SDS011;8692;52.164;7.558;2022-08-20T11:12:53;6.37;;;2.70;;
17153;SDS011;8692;52.164;7.558;2022-08-20T11:15:23;7.20;;;2.75;;
17153;SDS011;8692;52.164;7.558;2022-08-20T11:17:52;4.47;;;2.58;;
17153;SDS011;8692;52.164;7.558;2022-08-20T11:20:22;5.32;;;2.65;;
17153;SDS011;8692;52.164;7.558;2022-08-20T11:22:52;5.88;;;2.53;;
17153;SDS011;8692;52.164;7.558;2022-08-20T11:25:20;4.68;;;2.45;;
17153;SDS011;8692;52.164;7.558;2022-08-20T11:27:53;5.25;;;2.55;;
17153;SDS011;8692;52.164;7.558;2022-08-20T11:30:24;8.60;;;3.00;;
17153;SDS011;8692;52.164;7.558;2022-08-20T11:32:54;7.45;;;3.00;;
17153;SDS011;8692;52.164;7.558;2022-08-20T11:35:23;8.55;;;2.90;;
17153;SDS011;8692;52.164;7.558;2022-08-20T11:38:14;7.03;;;2.70;;
17153;SDS011;8692;52.164;7.558;2022-08-20T11:40:42;7.55;;;2.92;;
17153;SDS011;8692;52.164;7.558;2022-08-20T11:43:13;4.97;;;2.38;;
17153;SDS011;8692;52.164;7.558;2022-08-20T11:45:43;9.18;;;2.67;;
17153;SDS011;8692;52.164;7.558;2022-08-20T11:48:16;5.25;;;2.40;;
17153;SDS011;8692;52.164;7.558;2022-08-20T11:50:48;5.97;;;2.53;;
17153;SDS011;8692;52.164;7.558;2022-08-20T11:53:17;6.88;;;2.28;;
17153;SDS011;8692;52.164;7.558;2022-08-20T11:55:46;5.30;;;2.58;;
17153;SDS011;8692;52.164;7.558;2022-08-20T11:58:16;9.20;;;3.08;;
17153;SDS011;8692;52.164;7.558;2022-08-20T12:00:47;4.60;;;2.75;;
17153;SDS011;8692;52.164;7.558;2022-08-20T12:03:16;8.80;;;2.47;;
17153;SDS011;8692;52.164;7.558;2022-08-20T12:05:46;5.55;;;2.45;;
17153;SDS011;8692;52.164;7.558;2022-08-20T12:08:17;9.75;;;2.30;;
17153;SDS011;8692;52.164;7.558;2022-08-20T12:10:53;5.93;;;2.80;;
17153;SDS011;8692;52.164;7.558;2022-08-20T12:13:24;7.05;;;2.47;;
17153;SDS011;8692;52.164;7.558;2022-08-20T12:16:12;6.40;;;2.38;;
17153;SDS011;8692;52.164;7.558;2022-08-20T12:18:41;9.55;;;2.53;;
17153;SDS011;8692;52.164;7.558;2022-08-20T12:21:12;8.82;;;2.58;;
17153;SDS011;8692;52.164;7.558;2022-08-20T12:23:41;6.07;;;2.30;;
17153;SDS011;8692;52.164;7.558;2022-08-20T12:26:09;8.65;;;2.25;;
17153;SDS011;8692;52.164;7.558;2022-08-20T12:28:39;6.32;;;2.22;;
17153;SDS011;8692;52.164;7.558;2022-08-20T12:31:07;6.15;;;1.90;;
17153;SDS011;8692;52.164;7.558;2022-08-20T12:33:35;4.90;;;2.20;;
17153;SDS011;8692;52.164;7.558;2022-08-20T12:36:04;7.50;;;2.00;;
17153;SDS011;8692;52.164;7.558;2022-08-20T12:38:35;7.88;;;2.65;;
17153;SDS011;8692;52.164;7.558;2022-08-20T12:41:03;7.22;;;2.15;;
17153;SDS011;8692;52.164;7.558;2022-08-20T12:43:31;5.50;;;2.50;;
17153;SDS011;8692;52.164;7.558;2022-08-20T12:46:01;8.10;;;1.95;;
17153;SDS011;8692;52.164;7.558;2022-08-20T12:48:29;8.73;;;2.20;;
17153;SDS011;8692;52.164;7.558;2022-08-20T12:51:00;12.07;;;2.80;;
17153;SDS011;8692;52.164;7.558;2022-08-20T12:53:28;6.10;;;1.95;;
17153;SDS011;8692;52.164;7.558;2022-08-20T12:55:58;7.00;;;2.13;;
17153;SDS011;8692;52.164;7.558;2022-08-20T12:58:27;3.83;;;1.88;;
17153;SDS011;8692;52.164;7.558;2022-08-20T13:00:57;4.53;;;2.08;;
17153;SDS011;8692;52.164;7.558;2022-08-20T13:03:27;6.28;;;2.20;;
17153;SDS011;8692;52.164;7.558;2022-08-20T13:05:59;11.23;;;2.30;;
17153;SDS011;8692;52.164;7.558;2022-08-20T13:08:30;9.32;;;2.38;;
17153;SDS011;8692;52.164;7.558;2022-08-20T13:11:00;7.88;;;2.30;;
17153;SDS011;8692;52.164;7.558;2022-08-20T13:13:28;8.43;;;2.30;;
17153;SDS011;8692;52.164;7.558;2022-08-20T13:15:57;7.75;;;2.50;;
17153;SDS011;8692;52.164;7.558;2022-08-20T13:18:25;8.32;;;2.42;;
17153;SDS011;8692;52.164;7.558;2022-08-20T13:20:55;7.28;;;2.20;;
17153;SDS011;8692;52.164;7.558;2022-08-20T13:23:26;8.82;;;2.10;;
17153;SDS011;8692;52.164;7.558;2022-08-20T13:25:54;10.48;;;2.42;;
17153;SDS011;8692;52.164;7.558;2022-08-20T13:28:23;8.63;;;2.38;;
17153;SDS011;8692;52.164;7.558;2022-08-20T13:30:51;7.65;;;2.13;;
17153;SDS011;8692;52.164;7.558;2022-08-20T13:33:19;7.65;;;2.08;;
17153;SDS011;8692;52.164;7.558;2022-08-20T13:35:48;5.45;;;1.90;;
17153;SDS011;8692;52.164;7.558;2022-08-20T13:38:20;9.02;;;2.75;;
17153;SDS011;8692;52.164;7.558;2022-08-20T13:40:50;6.65;;;2.53;;
17153;SDS011;8692;52.164;7.558;2022-08-20T13:43:18;8.00;;;2.30;;
17153;SDS011;8692;52.164;7.558;2022-08-20T13:45:46;7.03;;;2.00;;
17153;SDS011;8692;52.164;7.558;2022-08-20T13:48:15;6.60;;;2.30;;
17153;SDS011;8692;52.164;7.558;2022-08-20T13:50:43;5.85;;;2.58;;
17153;SDS011;8692;52.164;7.558;2022-08-20T13:53:13;5.65;;;2.38;;
17153;SDS011;8692;52.164;7.558;2022-08-20T13:55:46;7.80;;;2.05;;
17153;SDS011;8692;52.164;7.558;2022-08-20T13:58:14;6.22;;;2.10;;
17153;SDS011;8692;52.164;7.558;2022-08-20T14:00:45;5.28;;;2.10;;
17153;SDS011;8692;52.164;7.558;2022-08-20T14:03:14;7.70;;;2.53;;
17153;SDS011;8692;52.164;7.558;2022-08-20T14:05:50;6.13;;;1.95;;
17153;SDS011;8692;52.164;7.558;2022-08-20T14:08:20;8.25;;;2.13;;
17153;SDS011;8692;52.164;7.558;2022-08-20T14:10:51;5.25;;;2.03;;
17153;SDS011;8692;52.164;7.558;2022-08-20T14:13:20;9.18;;;2.40;;
17153;SDS011;8692;52.164;7.558;2022-08-20T14:15:50;7.15;;;2.25;;
17153;SDS011;8692;52.164;7.558;2022-08-20T14:18:19;6.32;;;2.00;;
17153;SDS011;8692;52.164;7.558;2022-08-20T14:20:47;7.68;;;2.30;;
17153;SDS011;8692;52.164;7.558;2022-08-20T14:23:15;4.80;;;1.95;;
17153;SDS011;8692;52.164;7.558;2022-08-20T14:25:44;5.82;;;1.95;;
17153;SDS011;8692;52.164;7.558;2022-08-20T14:28:18;4.20;;;1.77;;
17153;SDS011;8692;52.164;7.558;2022-08-20T14:30:51;5.82;;;1.85;;
17153;SDS011;8692;52.164;7.558;2022-08-20T14:33:19;6.68;;;2.25;;
17153;SDS011;8692;52.164;7.558;2022-08-20T14:35:48;5.53;;;1.83;;
17153;SDS011;8692;52.164;7.558;2022-08-20T14:38:19;6.78;;;2.20;;
17153;SDS011;8692;52.164;7.558;2022-08-20T14:40:47;5.65;;;1.83;;
17153;SDS011;8692;52.164;7.558;2022-08-20T14:43:19;4.40;;;1.85;;
17153;SDS011;8692;52.164;7.558;2022-08-20T14:45:48;5.28;;;2.03;;
17153;SDS011;8692;52.164;7.558;2022-08-20T14:48:18;6.25;;;1.77;;
17153;SDS011;8692;52.164;7.558;2022-08-20T14:50:48;5.72;;;2.00;;
17153;SDS011;8692;52.164;7.558;2022-08-20T14:53:16;3.75;;;1.60;;
17153;SDS011;8692;52.164;7.558;2022-08-20T14:55:44;5.55;;;2.10;;
17153;SDS011;8692;52.164;7.558;2022-08-20T14:58:13;5.63;;;2.13;;
17153;SDS011;8692;52.164;7.558;2022-08-20T15:00:46;7.40;;;1.88;;
17153;SDS011;8692;52.164;7.558;2022-08-20T15:03:14;5.10;;;1.80;;
17153;SDS011;8692;52.164;7.558;2022-08-20T15:05:42;4.95;;;1.90;;
17153;SDS011;8692;52.164;7.558;2022-08-20T15:08:10;6.18;;;1.95;;
17153;SDS011;8692;52.164;7.558;2022-08-20T15:10:39;5.68;;;1.70;;
17153;SDS011;8692;52.164;7.558;2022-08-20T15:13:07;9.13;;;4.85;;
17153;SDS011;8692;52.164;7.558;2022-08-20T15:15:36;7.63;;;5.25;;